Etusivu
METAR-TAF:

METAR-TAF

Lentoasemat :

Livingston County Spencer J. Hardy Airport

Howell, Michigan, Yhdysvallat

Leveyspiiri: 42-37-46N, Pituuspiiri: 083-59-03W, korkeus merenpinnasta: 293 m

Tämänhetkinen sää

Tämä raportti tehtiin 19 minuuttia sitten, kello 18.15 UTC
Tuuli 6 kn kaakosta
Lämpötila 2°C
Kosteus 55%
Ilmanpaine 1021 hPa
Näkyvyys: 16.1 km
Pilvistä 8000 ft:n korkeudessa

METAR: KOZW 231815Z AUTO 13006KT 10SM OVC080 02/M06 A3014 RMK AO2 T00211063

Aika: 13:34 (18:34 UTC)


TAF: puuttuu

Säähavainnot ja -ennusteet yli 4000 lentoasemalta (METAR- ja TAF-raportit).

Käytössä olevat sääasemat on merkitty karttaan keltaisilla ja punaisilla pisteillä.

Aseta hiiri pisteen päälle nähdäksesi sääaseman nimen.

Klikkaa sitten nähdäksesi säähavainnot ja -ennusteet.

Kartan vaihtaminen: klikkaa mustalla rastilla varustettuja vihreitä pisteitä, niin voit zoomata sisään; viivalla varustettua vihreää pistettä, niin voit zoomata ulos tai vihreitä nuolia, niin pääset viereisille kartoille.


METAR-TAF: